sensor_id;sensor_type;location;lat;lon;timestamp;P1;durP1;ratioP1;P2;durP2;ratioP2
8421;SDS011;4248;48.196;10.924;2023-05-07T00:00:19;10.70;;;4.37;;
8421;SDS011;4248;48.196;10.924;2023-05-07T00:02:45;7.73;;;4.63;;
8421;SDS011;4248;48.196;10.924;2023-05-07T00:05:11;9.33;;;4.20;;
8421;SDS011;4248;48.196;10.924;2023-05-07T00:07:37;5.07;;;3.30;;
8421;SDS011;4248;48.196;10.924;2023-05-07T00:10:03;6.50;;;3.80;;
8421;SDS011;4248;48.196;10.924;2023-05-07T00:12:31;14.07;;;3.90;;
8421;SDS011;4248;48.196;10.924;2023-05-07T00:14:58;14.00;;;4.17;;
8421;SDS011;4248;48.196;10.924;2023-05-07T00:17:27;5.10;;;4.07;;
8421;SDS011;4248;48.196;10.924;2023-05-07T00:19:54;6.90;;;4.23;;
8421;SDS011;4248;48.196;10.924;2023-05-07T00:22:19;4.80;;;3.67;;
8421;SDS011;4248;48.196;10.924;2023-05-07T00:24:45;5.87;;;4.13;;
8421;SDS011;4248;48.196;10.924;2023-05-07T00:27:10;14.63;;;5.43;;
8421;SDS011;4248;48.196;10.924;2023-05-07T00:29:36;11.23;;;6.40;;
8421;SDS011;4248;48.196;10.924;2023-05-07T00:32:01;11.20;;;5.83;;
8421;SDS011;4248;48.196;10.924;2023-05-07T00:34:27;11.03;;;5.30;;
8421;SDS011;4248;48.196;10.924;2023-05-07T00:36:53;8.60;;;5.67;;
8421;SDS011;4248;48.196;10.924;2023-05-07T00:39:18;8.10;;;5.23;;
8421;SDS011;4248;48.196;10.924;2023-05-07T00:41:44;9.33;;;5.20;;
8421;SDS011;4248;48.196;10.924;2023-05-07T00:44:10;6.63;;;5.20;;
8421;SDS011;4248;48.196;10.924;2023-05-07T00:46:36;7.90;;;5.40;;
8421;SDS011;4248;48.196;10.924;2023-05-07T00:49:02;7.40;;;5.17;;
8421;SDS011;4248;48.196;10.924;2023-05-07T00:51:28;8.57;;;5.30;;
8421;SDS011;4248;48.196;10.924;2023-05-07T00:53:54;6.13;;;5.43;;
8421;SDS011;4248;48.196;10.924;2023-05-07T00:56:21;9.40;;;5.13;;
8421;SDS011;4248;48.196;10.924;2023-05-07T00:58:47;9.10;;;6.20;;
8421;SDS011;4248;48.196;10.924;2023-05-07T01:01:13;9.43;;;6.37;;
8421;SDS011;4248;48.196;10.924;2023-05-07T01:03:40;10.47;;;5.93;;
8421;SDS011;4248;48.196;10.924;2023-05-07T01:06:06;8.10;;;6.10;;
8421;SDS011;4248;48.196;10.924;2023-05-07T01:08:33;8.67;;;5.73;;
8421;SDS011;4248;48.196;10.924;2023-05-07T01:11:00;18.77;;;6.13;;
8421;SDS011;4248;48.196;10.924;2023-05-07T01:13:26;8.40;;;6.17;;
8421;SDS011;4248;48.196;10.924;2023-05-07T01:15:52;9.63;;;7.03;;
8421;SDS011;4248;48.196;10.924;2023-05-07T01:18:18;11.40;;;6.97;;
8421;SDS011;4248;48.196;10.924;2023-05-07T01:20:44;10.07;;;5.80;;
8421;SDS011;4248;48.196;10.924;2023-05-07T01:23:10;13.23;;;6.80;;
8421;SDS011;4248;48.196;10.924;2023-05-07T01:25:36;8.17;;;5.90;;
8421;SDS011;4248;48.196;10.924;2023-05-07T01:28:02;10.93;;;6.97;;
8421;SDS011;4248;48.196;10.924;2023-05-07T01:30:28;11.90;;;7.60;;
8421;SDS011;4248;48.196;10.924;2023-05-07T01:33:04;9.33;;;7.00;;
8421;SDS011;4248;48.196;10.924;2023-05-07T01:35:38;10.47;;;6.20;;
8421;SDS011;4248;48.196;10.924;2023-05-07T01:38:06;11.17;;;6.83;;
8421;SDS011;4248;48.196;10.924;2023-05-07T01:40:33;8.53;;;6.47;;
8421;SDS011;4248;48.196;10.924;2023-05-07T01:42:59;10.43;;;6.50;;
8421;SDS011;4248;48.196;10.924;2023-05-07T01:45:27;7.40;;;6.03;;
8421;SDS011;4248;48.196;10.924;2023-05-07T01:47:53;10.87;;;5.70;;
8421;SDS011;4248;48.196;10.924;2023-05-07T01:50:20;9.13;;;5.63;;
8421;SDS011;4248;48.196;10.924;2023-05-07T01:52:46;11.10;;;5.67;;
8421;SDS011;4248;48.196;10.924;2023-05-07T01:55:12;9.33;;;5.60;;
8421;SDS011;4248;48.196;10.924;2023-05-07T01:57:38;9.57;;;6.13;;
8421;SDS011;4248;48.196;10.924;2023-05-07T02:00:04;9.40;;;6.40;;
8421;SDS011;4248;48.196;10.924;2023-05-07T02:02:30;7.93;;;5.77;;
8421;SDS011;4248;48.196;10.924;2023-05-07T02:04:56;10.00;;;6.10;;
8421;SDS011;4248;48.196;10.924;2023-05-07T02:07:21;9.90;;;5.50;;
8421;SDS011;4248;48.196;10.924;2023-05-07T02:09:47;7.50;;;5.73;;
8421;SDS011;4248;48.196;10.924;2023-05-07T02:12:13;12.20;;;6.80;;
8421;SDS011;4248;48.196;10.924;2023-05-07T02:14:38;8.23;;;6.57;;
8421;SDS011;4248;48.196;10.924;2023-05-07T02:17:04;8.90;;;6.27;;
8421;SDS011;4248;48.196;10.924;2023-05-07T02:19:29;10.40;;;6.30;;
8421;SDS011;4248;48.196;10.924;2023-05-07T02:21:55;8.93;;;5.90;;
8421;SDS011;4248;48.196;10.924;2023-05-07T02:24:21;6.70;;;5.13;;
8421;SDS011;4248;48.196;10.924;2023-05-07T02:26:46;8.23;;;5.60;;
8421;SDS011;4248;48.196;10.924;2023-05-07T02:29:12;13.63;;;5.47;;
8421;SDS011;4248;48.196;10.924;2023-05-07T02:31:37;10.47;;;5.80;;
8421;SDS011;4248;48.196;10.924;2023-05-07T02:34:03;6.80;;;5.23;;
8421;SDS011;4248;48.196;10.924;2023-05-07T02:36:29;9.90;;;5.63;;
8421;SDS011;4248;48.196;10.924;2023-05-07T02:38:54;11.20;;;6.10;;
8421;SDS011;4248;48.196;10.924;2023-05-07T02:41:20;8.20;;;5.87;;
8421;SDS011;4248;48.196;10.924;2023-05-07T02:43:46;8.90;;;5.17;;
8421;SDS011;4248;48.196;10.924;2023-05-07T02:46:11;11.83;;;6.00;;
8421;SDS011;4248;48.196;10.924;2023-05-07T02:48:37;6.70;;;4.90;;
8421;SDS011;4248;48.196;10.924;2023-05-07T02:51:03;8.10;;;5.80;;
8421;SDS011;4248;48.196;10.924;2023-05-07T02:53:30;7.73;;;5.00;;
8421;SDS011;4248;48.196;10.924;2023-05-07T02:55:56;6.87;;;4.97;;
8421;SDS011;4248;48.196;10.924;2023-05-07T02:58:22;6.73;;;4.83;;
8421;SDS011;4248;48.196;10.924;2023-05-07T03:00:48;9.33;;;6.40;;
8421;SDS011;4248;48.196;10.924;2023-05-07T03:03:14;9.77;;;6.00;;
8421;SDS011;4248;48.196;10.924;2023-05-07T03:05:40;10.53;;;7.20;;
8421;SDS011;4248;48.196;10.924;2023-05-07T03:08:06;11.00;;;6.93;;
8421;SDS011;4248;48.196;10.924;2023-05-07T03:10:31;11.30;;;6.30;;
8421;SDS011;4248;48.196;10.924;2023-05-07T03:12:57;11.17;;;6.40;;
8421;SDS011;4248;48.196;10.924;2023-05-07T03:15:23;10.93;;;5.50;;
8421;SDS011;4248;48.196;10.924;2023-05-07T03:17:48;8.23;;;6.07;;
8421;SDS011;4248;48.196;10.924;2023-05-07T03:20:14;8.17;;;6.53;;
8421;SDS011;4248;48.196;10.924;2023-05-07T03:22:39;9.73;;;6.67;;
8421;SDS011;4248;48.196;10.924;2023-05-07T03:25:05;10.30;;;6.10;;
8421;SDS011;4248;48.196;10.924;2023-05-07T03:27:31;7.60;;;5.90;;
8421;SDS011;4248;48.196;10.924;2023-05-07T03:29:57;11.50;;;6.27;;
8421;SDS011;4248;48.196;10.924;2023-05-07T03:32:23;10.30;;;5.60;;
8421;SDS011;4248;48.196;10.924;2023-05-07T03:34:48;8.10;;;5.90;;
8421;SDS011;4248;48.196;10.924;2023-05-07T03:37:14;9.00;;;6.17;;
8421;SDS011;4248;48.196;10.924;2023-05-07T03:39:40;8.93;;;6.10;;
8421;SDS011;4248;48.196;10.924;2023-05-07T03:42:05;9.00;;;6.40;;
8421;SDS011;4248;48.196;10.924;2023-05-07T03:44:31;8.90;;;6.10;;
8421;SDS011;4248;48.196;10.924;2023-05-07T03:46:56;12.23;;;7.20;;
8421;SDS011;4248;48.196;10.924;2023-05-07T03:49:22;9.30;;;7.30;;
8421;SDS011;4248;48.196;10.924;2023-05-07T03:51:48;11.83;;;7.00;;
8421;SDS011;4248;48.196;10.924;2023-05-07T03:54:13;13.03;;;7.73;;
8421;SDS011;4248;48.196;10.924;2023-05-07T03:56:39;10.80;;;7.13;;
8421;SDS011;4248;48.196;10.924;2023-05-07T03:59:05;9.90;;;6.40;;
8421;SDS011;4248;48.196;10.924;2023-05-07T04:01:30;8.67;;;6.27;;
8421;SDS011;4248;48.196;10.924;2023-05-07T04:03:56;14.10;;;6.13;;
8421;SDS011;4248;48.196;10.924;2023-05-07T04:06:21;10.13;;;6.07;;
8421;SDS011;4248;48.196;10.924;2023-05-07T04:08:47;9.40;;;6.00;;
8421;SDS011;4248;48.196;10.924;2023-05-07T04:11:13;9.23;;;6.17;;
8421;SDS011;4248;48.196;10.924;2023-05-07T04:13:38;10.97;;;6.87;;
8421;SDS011;4248;48.196;10.924;2023-05-07T04:16:04;8.73;;;6.27;;
8421;SDS011;4248;48.196;10.924;2023-05-07T04:18:30;11.40;;;7.33;;
8421;SDS011;4248;48.196;10.924;2023-05-07T04:20:56;8.00;;;5.93;;
8421;SDS011;4248;48.196;10.924;2023-05-07T04:23:22;13.73;;;6.80;;
8421;SDS011;4248;48.196;10.924;2023-05-07T04:25:47;10.13;;;6.97;;
8421;SDS011;4248;48.196;10.924;2023-05-07T04:28:13;20.27;;;13.50;;
8421;SDS011;4248;48.196;10.924;2023-05-07T04:30:38;23.87;;;14.33;;
8421;SDS011;4248;48.196;10.924;2023-05-07T04:33:04;19.50;;;13.17;;
8421;SDS011;4248;48.196;10.924;2023-05-07T04:35:31;18.07;;;11.83;;
8421;SDS011;4248;48.196;10.924;2023-05-07T04:37:57;14.97;;;9.60;;
8421;SDS011;4248;48.196;10.924;2023-05-07T04:40:23;15.60;;;10.00;;
8421;SDS011;4248;48.196;10.924;2023-05-07T04:42:48;16.07;;;10.67;;
8421;SDS011;4248;48.196;10.924;2023-05-07T04:45:14;12.90;;;8.90;;
8421;SDS011;4248;48.196;10.924;2023-05-07T04:47:40;17.33;;;10.80;;
8421;SDS011;4248;48.196;10.924;2023-05-07T04:50:08;13.50;;;9.90;;
8421;SDS011;4248;48.196;10.924;2023-05-07T04:52:34;23.67;;;16.70;;
8421;SDS011;4248;48.196;10.924;2023-05-07T04:55:00;17.73;;;10.90;;
8421;SDS011;4248;48.196;10.924;2023-05-07T04:57:25;14.90;;;10.37;;
8421;SDS011;4248;48.196;10.924;2023-05-07T04:59:52;19.87;;;12.90;;
8421;SDS011;4248;48.196;10.924;2023-05-07T05:02:18;13.07;;;9.10;;
8421;SDS011;4248;48.196;10.924;2023-05-07T05:04:44;9.23;;;6.90;;
8421;SDS011;4248;48.196;10.924;2023-05-07T05:07:10;11.50;;;5.20;;
8421;SDS011;4248;48.196;10.924;2023-05-07T05:09:35;7.63;;;4.83;;
8421;SDS011;4248;48.196;10.924;2023-05-07T05:12:01;5.73;;;4.00;;
8421;SDS011;4248;48.196;10.924;2023-05-07T05:14:26;7.87;;;4.43;;
8421;SDS011;4248;48.196;10.924;2023-05-07T05:16:52;11.10;;;5.63;;
8421;SDS011;4248;48.196;10.924;2023-05-07T05:19:18;6.73;;;4.67;;
8421;SDS011;4248;48.196;10.924;2023-05-07T05:21:43;10.10;;;6.40;;
8421;SDS011;4248;48.196;10.924;2023-05-07T05:24:09;12.40;;;5.70;;
8421;SDS011;4248;48.196;10.924;2023-05-07T05:26:34;7.23;;;4.93;;
8421;SDS011;4248;48.196;10.924;2023-05-07T05:29:00;8.93;;;6.00;;
8421;SDS011;4248;48.196;10.924;2023-05-07T05:31:26;7.57;;;5.73;;
8421;SDS011;4248;48.196;10.924;2023-05-07T05:33:51;11.33;;;6.10;;
8421;SDS011;4248;48.196;10.924;2023-05-07T05:36:17;7.67;;;5.60;;
8421;SDS011;4248;48.196;10.924;2023-05-07T05:38:43;8.77;;;5.60;;
8421;SDS011;4248;48.196;10.924;2023-05-07T05:41:09;8.27;;;5.50;;
8421;SDS011;4248;48.196;10.924;2023-05-07T05:43:35;7.83;;;5.00;;
8421;SDS011;4248;48.196;10.924;2023-05-07T05:46:00;10.33;;;5.60;;
8421;SDS011;4248;48.196;10.924;2023-05-07T05:48:26;8.07;;;5.53;;
8421;SDS011;4248;48.196;10.924;2023-05-07T05:50:52;11.67;;;6.90;;
8421;SDS011;4248;48.196;10.924;2023-05-07T05:53:17;9.23;;;6.47;;
8421;SDS011;4248;48.196;10.924;2023-05-07T05:55:43;12.40;;;6.53;;
8421;SDS011;4248;48.196;10.924;2023-05-07T05:58:09;10.13;;;5.93;;
8421;SDS011;4248;48.196;10.924;2023-05-07T06:00:34;12.90;;;7.47;;
8421;SDS011;4248;48.196;10.924;2023-05-07T06:03:00;9.30;;;5.50;;
8421;SDS011;4248;48.196;10.924;2023-05-07T06:05:26;9.37;;;5.80;;
8421;SDS011;4248;48.196;10.924;2023-05-07T06:07:51;8.80;;;5.53;;
8421;SDS011;4248;48.196;10.924;2023-05-07T06:10:17;7.17;;;5.27;;
8421;SDS011;4248;48.196;10.924;2023-05-07T06:12:42;7.80;;;5.90;;
8421;SDS011;4248;48.196;10.924;2023-05-07T06:15:08;9.60;;;5.83;;
8421;SDS011;4248;48.196;10.924;2023-05-07T06:17:34;8.00;;;5.47;;
8421;SDS011;4248;48.196;10.924;2023-05-07T06:20:00;7.60;;;5.73;;
8421;SDS011;4248;48.196;10.924;2023-05-07T06:22:25;10.57;;;4.67;;
8421;SDS011;4248;48.196;10.924;2023-05-07T06:24:51;7.57;;;5.37;;
8421;SDS011;4248;48.196;10.924;2023-05-07T06:27:16;8.73;;;4.67;;
8421;SDS011;4248;48.196;10.924;2023-05-07T06:29:42;7.67;;;5.00;;
8421;SDS011;4248;48.196;10.924;2023-05-07T06:34:37;6.40;;;4.50;;
8421;SDS011;4248;48.196;10.924;2023-05-07T06:37:04;7.50;;;4.10;;
8421;SDS011;4248;48.196;10.924;2023-05-07T06:39:30;5.90;;;4.67;;
8421;SDS011;4248;48.196;10.924;2023-05-07T06:41:56;8.17;;;4.10;;
8421;SDS011;4248;48.196;10.924;2023-05-07T06:44:21;11.50;;;4.63;;
8421;SDS011;4248;48.196;10.924;2023-05-07T06:46:47;4.70;;;3.30;;
8421;SDS011;4248;48.196;10.924;2023-05-07T06:49:15;5.40;;;3.10;;
8421;SDS011;4248;48.196;10.924;2023-05-07T06:51:44;6.63;;;3.37;;
8421;SDS011;4248;48.196;10.924;2023-05-07T06:54:13;5.60;;;3.57;;
8421;SDS011;4248;48.196;10.924;2023-05-07T06:56:40;6.20;;;3.40;;
8421;SDS011;4248;48.196;10.924;2023-05-07T06:59:11;6.50;;;3.37;;
8421;SDS011;4248;48.196;10.924;2023-05-07T07:01:46;7.07;;;4.00;;
8421;SDS011;4248;48.196;10.924;2023-05-07T07:04:11;8.93;;;4.50;;
8421;SDS011;4248;48.196;10.924;2023-05-07T07:06:37;7.43;;;4.07;;
8421;SDS011;4248;48.196;10.924;2023-05-07T07:09:03;4.50;;;3.53;;
8421;SDS011;4248;48.196;10.924;2023-05-07T07:11:29;7.67;;;4.40;;
8421;SDS011;4248;48.196;10.924;2023-05-07T07:13:56;8.07;;;4.20;;
8421;SDS011;4248;48.196;10.924;2023-05-07T07:16:24;7.93;;;4.67;;
8421;SDS011;4248;48.196;10.924;2023-05-07T07:18:52;7.10;;;4.43;;
8421;SDS011;4248;48.196;10.924;2023-05-07T07:21:18;10.80;;;4.90;;
8421;SDS011;4248;48.196;10.924;2023-05-07T07:23:45;6.10;;;4.53;;
8421;SDS011;4248;48.196;10.924;2023-05-07T07:26:11;7.50;;;3.73;;
8421;SDS011;4248;48.196;10.924;2023-05-07T07:28:44;5.63;;;3.83;;
8421;SDS011;4248;48.196;10.924;2023-05-07T07:31:11;10.50;;;4.07;;
8421;SDS011;4248;48.196;10.924;2023-05-07T07:33:38;6.57;;;3.57;;
8421;SDS011;4248;48.196;10.924;2023-05-07T07:36:06;6.63;;;3.60;;
8421;SDS011;4248;48.196;10.924;2023-05-07T07:38:32;5.90;;;3.60;;
8421;SDS011;4248;48.196;10.924;2023-05-07T07:40:59;6.43;;;3.43;;
8421;SDS011;4248;48.196;10.924;2023-05-07T07:43:28;4.60;;;3.30;;
8421;SDS011;4248;48.196;10.924;2023-05-07T07:45:58;6.10;;;3.13;;
8421;SDS011;4248;48.196;10.924;2023-05-07T07:48:33;5.43;;;3.37;;
8421;SDS011;4248;48.196;10.924;2023-05-07T07:51:00;5.67;;;3.47;;
8421;SDS011;4248;48.196;10.924;2023-05-07T07:53:26;8.63;;;3.90;;
8421;SDS011;4248;48.196;10.924;2023-05-07T07:55:52;5.33;;;3.23;;
8421;SDS011;4248;48.196;10.924;2023-05-07T07:58:19;8.10;;;3.93;;
8421;SDS011;4248;48.196;10.924;2023-05-07T08:00:48;5.93;;;3.23;;
8421;SDS011;4248;48.196;10.924;2023-05-07T08:03:15;6.50;;;3.37;;
8421;SDS011;4248;48.196;10.924;2023-05-07T08:05:42;5.83;;;3.80;;
8421;SDS011;4248;48.196;10.924;2023-05-07T08:08:10;5.90;;;3.23;;
8421;SDS011;4248;48.196;10.924;2023-05-07T08:10:38;5.67;;;3.30;;
8421;SDS011;4248;48.196;10.924;2023-05-07T08:13:05;7.90;;;3.80;;
8421;SDS011;4248;48.196;10.924;2023-05-07T08:15:34;5.73;;;3.47;;
8421;SDS011;4248;48.196;10.924;2023-05-07T08:18:01;7.77;;;3.40;;
8421;SDS011;4248;48.196;10.924;2023-05-07T08:20:28;6.67;;;3.27;;
8421;SDS011;4248;48.196;10.924;2023-05-07T08:22:56;5.50;;;3.40;;
8421;SDS011;4248;48.196;10.924;2023-05-07T08:25:22;12.90;;;3.80;;
8421;SDS011;4248;48.196;10.924;2023-05-07T08:27:51;5.57;;;3.53;;
8421;SDS011;4248;48.196;10.924;2023-05-07T08:30:19;5.30;;;3.40;;
8421;SDS011;4248;48.196;10.924;2023-05-07T08:32:49;7.57;;;4.33;;
8421;SDS011;4248;48.196;10.924;2023-05-07T08:35:18;7.70;;;4.23;;
8421;SDS011;4248;48.196;10.924;2023-05-07T08:37:46;6.53;;;3.70;;
8421;SDS011;4248;48.196;10.924;2023-05-07T08:40:16;7.30;;;3.90;;
8421;SDS011;4248;48.196;10.924;2023-05-07T08:42:49;5.23;;;3.20;;
8421;SDS011;4248;48.196;10.924;2023-05-07T08:45:20;7.70;;;4.10;;
8421;SDS011;4248;48.196;10.924;2023-05-07T08:47:52;7.20;;;3.30;;
8421;SDS011;4248;48.196;10.924;2023-05-07T08:50:24;7.73;;;4.40;;
8421;SDS011;4248;48.196;10.924;2023-05-07T08:52:54;4.97;;;3.60;;
8421;SDS011;4248;48.196;10.924;2023-05-07T08:55:25;4.27;;;3.33;;
8421;SDS011;4248;48.196;10.924;2023-05-07T08:57:56;5.80;;;3.70;;
8421;SDS011;4248;48.196;10.924;2023-05-07T09:00:22;6.40;;;3.67;;
8421;SDS011;4248;48.196;10.924;2023-05-07T09:02:50;9.50;;;3.77;;
8421;SDS011;4248;48.196;10.924;2023-05-07T09:05:18;11.40;;;4.10;;
8421;SDS011;4248;48.196;10.924;2023-05-07T09:07:44;6.27;;;3.60;;
8421;SDS011;4248;48.196;10.924;2023-05-07T09:10:11;5.90;;;3.70;;
8421;SDS011;4248;48.196;10.924;2023-05-07T09:12:38;4.60;;;2.77;;
8421;SDS011;4248;48.196;10.924;2023-05-07T09:15:09;6.30;;;3.00;;
8421;SDS011;4248;48.196;10.924;2023-05-07T09:17:37;4.60;;;3.10;;
8421;SDS011;4248;48.196;10.924;2023-05-07T09:20:09;5.50;;;3.17;;
8421;SDS011;4248;48.196;10.924;2023-05-07T09:22:37;5.40;;;3.30;;
8421;SDS011;4248;48.196;10.924;2023-05-07T09:25:04;7.00;;;4.87;;
8421;SDS011;4248;48.196;10.924;2023-05-07T09:27:34;6.50;;;4.20;;
8421;SDS011;4248;48.196;10.924;2023-05-07T09:30:07;7.10;;;4.30;;
8421;SDS011;4248;48.196;10.924;2023-05-07T09:32:35;10.00;;;4.87;;
8421;SDS011;4248;48.196;10.924;2023-05-07T09:35:05;9.03;;;5.00;;
8421;SDS011;4248;48.196;10.924;2023-05-07T09:37:40;7.20;;;4.30;;
8421;SDS011;4248;48.196;10.924;2023-05-07T09:40:07;8.60;;;4.73;;
8421;SDS011;4248;48.196;10.924;2023-05-07T09:42:45;8.23;;;4.33;;
8421;SDS011;4248;48.196;10.924;2023-05-07T09:45:13;9.00;;;4.10;;
8421;SDS011;4248;48.196;10.924;2023-05-07T09:47:55;6.53;;;4.00;;
8421;SDS011;4248;48.196;10.924;2023-05-07T09:50:29;9.27;;;4.10;;
8421;SDS011;4248;48.196;10.924;2023-05-07T09:53:03;6.17;;;3.60;;
8421;SDS011;4248;48.196;10.924;2023-05-07T09:55:31;5.10;;;3.50;;
8421;SDS011;4248;48.196;10.924;2023-05-07T09:57:59;6.40;;;3.70;;
8421;SDS011;4248;48.196;10.924;2023-05-07T10:00:28;8.40;;;4.20;;
8421;SDS011;4248;48.196;10.924;2023-05-07T10:02:57;8.73;;;4.13;;
8421;SDS011;4248;48.196;10.924;2023-05-07T10:05:29;5.83;;;3.63;;
8421;SDS011;4248;48.196;10.924;2023-05-07T10:07:58;6.40;;;3.63;;
8421;SDS011;4248;48.196;10.924;2023-05-07T10:10:28;4.70;;;2.80;;
8421;SDS011;4248;48.196;10.924;2023-05-07T10:12:58;7.20;;;3.70;;
8421;SDS011;4248;48.196;10.924;2023-05-07T10:15:25;4.60;;;3.47;;
8421;SDS011;4248;48.196;10.924;2023-05-07T10:17:53;6.83;;;4.00;;
8421;SDS011;4248;48.196;10.924;2023-05-07T10:20:21;10.80;;;4.30;;
8421;SDS011;4248;48.196;10.924;2023-05-07T10:22:48;7.53;;;4.07;;
8421;SDS011;4248;48.196;10.924;2023-05-07T10:25:21;5.10;;;3.47;;
8421;SDS011;4248;48.196;10.924;2023-05-07T10:27:51;5.83;;;3.43;;
8421;SDS011;4248;48.196;10.924;2023-05-07T10:33:24;4.40;;;2.77;;
8421;SDS011;4248;48.196;10.924;2023-05-07T10:35:57;4.23;;;2.67;;
8421;SDS011;4248;48.196;10.924;2023-05-07T10:38:27;4.10;;;2.10;;
8421;SDS011;4248;48.196;10.924;2023-05-07T10:40:54;6.43;;;2.80;;
8421;SDS011;4248;48.196;10.924;2023-05-07T10:43:21;8.57;;;2.70;;
8421;SDS011;4248;48.196;10.924;2023-05-07T10:49:15;3.63;;;2.20;;
8421;SDS011;4248;48.196;10.924;2023-05-07T10:51:37;6.43;;;2.43;;
8421;SDS011;4248;48.196;10.924;2023-05-07T10:56:40;5.30;;;2.53;;
8421;SDS011;4248;48.196;10.924;2023-05-07T11:01:58;7.23;;;2.47;;
8421;SDS011;4248;48.196;10.924;2023-05-07T11:04:28;4.37;;;2.00;;
8421;SDS011;4248;48.196;10.924;2023-05-07T11:15:09;5.67;;;2.20;;
8421;SDS011;4248;48.196;10.924;2023-05-07T11:17:52;5.80;;;2.07;;
8421;SDS011;4248;48.196;10.924;2023-05-07T11:20:19;5.00;;;2.70;;
8421;SDS011;4248;48.196;10.924;2023-05-07T11:23:17;4.57;;;2.13;;
8421;SDS011;4248;48.196;10.924;2023-05-07T11:28:42;5.83;;;2.33;;
8421;SDS011;4248;48.196;10.924;2023-05-07T11:31:08;5.07;;;1.80;;
8421;SDS011;4248;48.196;10.924;2023-05-07T11:33:35;4.40;;;2.10;;
8421;SDS011;4248;48.196;10.924;2023-05-07T11:36:03;4.07;;;2.17;;
8421;SDS011;4248;48.196;10.924;2023-05-07T11:38:36;5.17;;;2.10;;
8421;SDS011;4248;48.196;10.924;2023-05-07T11:41:05;3.50;;;1.90;;
8421;SDS011;4248;48.196;10.924;2023-05-07T11:43:32;5.90;;;1.87;;
8421;SDS011;4248;48.196;10.924;2023-05-07T11:46:10;10.67;;;2.00;;
8421;SDS011;4248;48.196;10.924;2023-05-07T11:48:37;7.90;;;2.50;;
8421;SDS011;4248;48.196;10.924;2023-05-07T11:51:06;3.40;;;1.90;;
8421;SDS011;4248;48.196;10.924;2023-05-07T11:53:39;3.67;;;2.10;;
8421;SDS011;4248;48.196;10.924;2023-05-07T11:56:06;5.70;;;2.20;;
8421;SDS011;4248;48.196;10.924;2023-05-07T11:58:32;5.53;;;1.80;;
8421;SDS011;4248;48.196;10.924;2023-05-07T12:00:58;4.00;;;2.20;;
8421;SDS011;4248;48.196;10.924;2023-05-07T12:03:24;4.80;;;2.10;;
8421;SDS011;4248;48.196;10.924;2023-05-07T12:05:49;3.80;;;2.07;;
8421;SDS011;4248;48.196;10.924;2023-05-07T12:08:15;6.57;;;2.47;;
8421;SDS011;4248;48.196;10.924;2023-05-07T12:10:42;9.20;;;2.10;;
8421;SDS011;4248;48.196;10.924;2023-05-07T12:13:15;4.33;;;2.13;;
8421;SDS011;4248;48.196;10.924;2023-05-07T12:15:41;3.23;;;2.00;;
8421;SDS011;4248;48.196;10.924;2023-05-07T12:18:07;3.80;;;2.17;;
8421;SDS011;4248;48.196;10.924;2023-05-07T12:20:34;3.60;;;1.80;;
8421;SDS011;4248;48.196;10.924;2023-05-07T12:23:01;8.30;;;2.13;;
8421;SDS011;4248;48.196;10.924;2023-05-07T12:25:29;5.30;;;2.10;;
8421;SDS011;4248;48.196;10.924;2023-05-07T12:27:56;5.10;;;2.40;;
8421;SDS011;4248;48.196;10.924;2023-05-07T12:30:23;9.03;;;2.43;;
8421;SDS011;4248;48.196;10.924;2023-05-07T12:32:52;7.43;;;2.10;;
8421;SDS011;4248;48.196;10.924;2023-05-07T12:35:30;4.47;;;2.30;;
8421;SDS011;4248;48.196;10.924;2023-05-07T12:37:56;4.50;;;2.30;;
8421;SDS011;4248;48.196;10.924;2023-05-07T12:40:24;3.50;;;2.07;;
8421;SDS011;4248;48.196;10.924;2023-05-07T12:43:02;5.60;;;2.33;;
8421;SDS011;4248;48.196;10.924;2023-05-07T12:45:28;5.93;;;2.33;;
8421;SDS011;4248;48.196;10.924;2023-05-07T12:47:53;4.20;;;1.73;;
8421;SDS011;4248;48.196;10.924;2023-05-07T12:50:19;5.33;;;2.17;;
8421;SDS011;4248;48.196;10.924;2023-05-07T12:52:47;4.53;;;1.90;;
8421;SDS011;4248;48.196;10.924;2023-05-07T12:55:16;6.93;;;2.30;;
8421;SDS011;4248;48.196;10.924;2023-05-07T12:57:43;4.30;;;2.10;;
8421;SDS011;4248;48.196;10.924;2023-05-07T13:00:12;5.00;;;1.97;;
8421;SDS011;4248;48.196;10.924;2023-05-07T13:02:39;4.60;;;1.97;;
8421;SDS011;4248;48.196;10.924;2023-05-07T13:05:06;3.37;;;1.87;;
8421;SDS011;4248;48.196;10.924;2023-05-07T13:07:33;7.20;;;2.00;;
8421;SDS011;4248;48.196;10.924;2023-05-07T13:09:58;4.20;;;1.90;;
8421;SDS011;4248;48.196;10.924;2023-05-07T13:12:24;4.17;;;2.20;;
8421;SDS011;4248;48.196;10.924;2023-05-07T13:14:49;4.27;;;2.10;;
8421;SDS011;4248;48.196;10.924;2023-05-07T13:17:15;6.23;;;2.20;;
8421;SDS011;4248;48.196;10.924;2023-05-07T13:19:41;7.40;;;1.97;;
8421;SDS011;4248;48.196;10.924;2023-05-07T13:22:06;5.00;;;2.00;;
8421;SDS011;4248;48.196;10.924;2023-05-07T13:24:32;6.70;;;2.10;;
8421;SDS011;4248;48.196;10.924;2023-05-07T13:26:57;3.50;;;2.47;;
8421;SDS011;4248;48.196;10.924;2023-05-07T13:29:23;5.00;;;2.10;;
8421;SDS011;4248;48.196;10.924;2023-05-07T13:31:55;4.43;;;2.10;;
8421;SDS011;4248;48.196;10.924;2023-05-07T13:34:23;3.70;;;2.10;;
8421;SDS011;4248;48.196;10.924;2023-05-07T13:36:49;4.60;;;1.80;;
8421;SDS011;4248;48.196;10.924;2023-05-07T13:39:15;4.77;;;2.40;;
8421;SDS011;4248;48.196;10.924;2023-05-07T13:41:41;4.40;;;1.77;;
8421;SDS011;4248;48.196;10.924;2023-05-07T13:44:06;5.43;;;2.43;;
8421;SDS011;4248;48.196;10.924;2023-05-07T13:46:32;7.20;;;2.00;;
8421;SDS011;4248;48.196;10.924;2023-05-07T13:48:57;4.70;;;2.53;;
8421;SDS011;4248;48.196;10.924;2023-05-07T13:51:23;4.90;;;2.53;;
8421;SDS011;4248;48.196;10.924;2023-05-07T13:53:49;5.67;;;2.17;;
8421;SDS011;4248;48.196;10.924;2023-05-07T13:56:15;7.27;;;2.23;;
8421;SDS011;4248;48.196;10.924;2023-05-07T13:58:41;7.30;;;2.40;;
8421;SDS011;4248;48.196;10.924;2023-05-07T14:01:06;9.10;;;1.97;;
8421;SDS011;4248;48.196;10.924;2023-05-07T14:03:32;4.73;;;2.10;;
8421;SDS011;4248;48.196;10.924;2023-05-07T14:05:58;5.70;;;2.37;;
8421;SDS011;4248;48.196;10.924;2023-05-07T14:08:26;3.80;;;2.07;;
8421;SDS011;4248;48.196;10.924;2023-05-07T14:10:52;3.30;;;1.90;;
8421;SDS011;4248;48.196;10.924;2023-05-07T14:13:18;4.00;;;2.17;;
8421;SDS011;4248;48.196;10.924;2023-05-07T14:15:44;4.27;;;2.60;;
8421;SDS011;4248;48.196;10.924;2023-05-07T14:18:14;5.90;;;2.40;;
8421;SDS011;4248;48.196;10.924;2023-05-07T14:20:40;6.30;;;2.27;;
8421;SDS011;4248;48.196;10.924;2023-05-07T14:23:05;4.17;;;2.23;;
8421;SDS011;4248;48.196;10.924;2023-05-07T14:25:31;7.70;;;2.90;;
8421;SDS011;4248;48.196;10.924;2023-05-07T14:27:57;6.93;;;2.57;;
8421;SDS011;4248;48.196;10.924;2023-05-07T14:30:22;6.73;;;2.40;;
8421;SDS011;4248;48.196;10.924;2023-05-07T14:32:49;7.10;;;2.30;;
8421;SDS011;4248;48.196;10.924;2023-05-07T14:35:15;3.63;;;1.97;;
8421;SDS011;4248;48.196;10.924;2023-05-07T14:37:41;4.40;;;2.03;;
8421;SDS011;4248;48.196;10.924;2023-05-07T14:40:07;4.67;;;2.00;;
8421;SDS011;4248;48.196;10.924;2023-05-07T14:42:33;5.50;;;2.40;;
8421;SDS011;4248;48.196;10.924;2023-05-07T14:44:59;6.77;;;2.70;;
8421;SDS011;4248;48.196;10.924;2023-05-07T14:47:24;4.90;;;2.30;;
8421;SDS011;4248;48.196;10.924;2023-05-07T14:49:50;8.03;;;2.00;;
8421;SDS011;4248;48.196;10.924;2023-05-07T14:52:16;6.60;;;2.53;;
8421;SDS011;4248;48.196;10.924;2023-05-07T14:54:42;5.10;;;2.53;;
8421;SDS011;4248;48.196;10.924;2023-05-07T14:57:08;7.57;;;2.80;;
8421;SDS011;4248;48.196;10.924;2023-05-07T14:59:35;5.10;;;2.63;;
8421;SDS011;4248;48.196;10.924;2023-05-07T15:02:00;4.67;;;2.47;;
8421;SDS011;4248;48.196;10.924;2023-05-07T15:04:26;5.57;;;2.80;;
8421;SDS011;4248;48.196;10.924;2023-05-07T15:06:52;5.40;;;2.83;;
8421;SDS011;4248;48.196;10.924;2023-05-07T15:09:22;6.17;;;2.90;;
8421;SDS011;4248;48.196;10.924;2023-05-07T15:11:47;5.70;;;2.93;;
8421;SDS011;4248;48.196;10.924;2023-05-07T15:14:13;5.80;;;2.70;;
8421;SDS011;4248;48.196;10.924;2023-05-07T15:16:38;6.13;;;2.80;;
8421;SDS011;4248;48.196;10.924;2023-05-07T15:19:04;3.67;;;2.23;;
8421;SDS011;4248;48.196;10.924;2023-05-07T15:21:30;5.87;;;2.50;;